createdAt,value
2022-10-03T00:00:21.392Z,74.89
2022-10-03T00:06:03.808Z,75.27
2022-10-03T00:11:34.949Z,75.14
2022-10-03T00:16:59.926Z,75.57
2022-10-03T00:22:34.034Z,75.13
2022-10-03T00:27:52.958Z,75.20
2022-10-03T00:33:15.439Z,75.19
2022-10-03T00:38:44.669Z,75.17
2022-10-03T00:44:23.062Z,74.98
2022-10-03T00:50:20.066Z,74.77
2022-10-03T00:55:35.583Z,74.61
2022-10-03T01:00:41.533Z,74.83
2022-10-03T01:06:15.054Z,74.87
2022-10-03T01:11:41.418Z,74.59
2022-10-03T01:17:12.082Z,74.68
2022-10-03T01:22:48.509Z,74.91
2022-10-03T01:29:05.845Z,75.10
2022-10-03T01:34:31.622Z,75.01
2022-10-03T01:39:55.890Z,74.98
2022-10-03T01:45:37.758Z,74.92
2022-10-03T01:51:22.505Z,75.10
2022-10-03T01:57:04.932Z,75.13
2022-10-03T02:02:20.991Z,75.23
2022-10-03T02:08:01.629Z,75.53
2022-10-03T02:13:21.101Z,75.54
2022-10-03T02:18:51.181Z,75.34
2022-10-03T02:24:53.224Z,75.34
2022-10-03T02:30:10.714Z,75.69
2022-10-03T02:36:09.296Z,75.88
2022-10-03T02:41:40.924Z,75.70
2022-10-03T02:47:24.684Z,75.62
2022-10-03T02:52:53.547Z,75.48
2022-10-03T02:58:32.088Z,75.23
2022-10-03T03:04:02.642Z,75.33
2022-10-03T03:09:45.691Z,75.23
2022-10-03T03:15:27.195Z,75.46
2022-10-03T03:20:43.807Z,75.67
2022-10-03T03:26:20.898Z,75.76
2022-10-03T03:32:06.222Z,75.49
2022-10-03T03:37:28.243Z,75.44
2022-10-03T03:42:49.855Z,75.33
2022-10-03T03:48:38.495Z,75.41
2022-10-03T03:53:50.364Z,75.16
2022-10-03T03:59:19.321Z,74.40
2022-10-03T04:05:03.893Z,74.42
2022-10-03T04:10:25.312Z,74.89
2022-10-03T04:15:52.319Z,75.16
2022-10-03T04:21:26.849Z,75.32
2022-10-03T04:27:07.261Z,75.19
2022-10-03T04:32:25.429Z,75.56
2022-10-03T04:37:58.287Z,76.12
2022-10-03T04:43:34.897Z,76.28
2022-10-03T04:49:07.246Z,76.29
2022-10-03T04:54:17.322Z,76.34
2022-10-03T04:59:34.520Z,76.79
2022-10-03T05:05:15.133Z,77.20
2022-10-03T05:10:35.993Z,77.21
2022-10-03T05:16:14.515Z,77.47
2022-10-03T05:21:20.204Z,77.87
2022-10-03T05:26:44.673Z,78.17
2022-10-03T05:32:29.128Z,78.34
2022-10-03T05:38:18.468Z,78.35
2022-10-03T05:43:42.910Z,78.23
2022-10-03T05:49:11.108Z,78.22
2022-10-03T05:54:41.097Z,78.55
2022-10-03T06:00:09.158Z,78.41
2022-10-03T06:05:39.655Z,78.28
2022-10-03T06:11:30.317Z,77.86
2022-10-03T06:17:09.448Z,77.73
2022-10-03T06:22:33.246Z,78.04
2022-10-03T06:28:04.002Z,77.91
2022-10-03T06:33:47.389Z,77.78
2022-10-03T06:39:17.590Z,78.00
2022-10-03T06:44:48.265Z,77.92
2022-10-03T06:50:06.221Z,77.83
2022-10-03T06:56:12.790Z,78.02
2022-10-03T07:01:40.517Z,78.14
2022-10-03T07:07:27.533Z,78.37
2022-10-03T07:12:54.841Z,77.87
2022-10-03T07:18:06.356Z,77.72
2022-10-03T07:23:28.265Z,77.33
2022-10-03T07:29:09.124Z,77.37
2022-10-03T07:34:49.763Z,77.00
2022-10-03T07:40:27.715Z,76.48
2022-10-03T07:46:15.873Z,76.63
2022-10-03T07:52:08.329Z,76.64
2022-10-03T07:58:07.912Z,75.77
2022-10-03T08:04:07.653Z,75.67
2022-10-03T08:09:44.555Z,75.94
2022-10-03T08:15:05.284Z,76.14
2022-10-03T08:20:23.400Z,76.59
2022-10-03T08:25:54.144Z,77.11
2022-10-03T08:31:18.800Z,77.56
2022-10-03T08:36:56.597Z,77.86
2022-10-03T08:42:46.193Z,78.36
2022-10-03T08:48:01.022Z,78.96
2022-10-03T08:53:33.731Z,79.41
2022-10-03T08:59:26.769Z,79.83
2022-10-03T09:05:20.394Z,80.36
2022-10-03T09:10:57.560Z,80.93
2022-10-03T09:16:20.868Z,80.68
2022-10-03T09:22:07.432Z,80.66
2022-10-03T09:27:15.715Z,81.00
2022-10-03T09:33:11.273Z,80.46
2022-10-03T09:38:19.752Z,79.64
2022-10-03T09:43:42.385Z,79.07
2022-10-03T09:49:13.081Z,78.59
2022-10-03T09:54:44.252Z,78.06
2022-10-03T10:00:14.657Z,77.78
2022-10-03T10:05:45.266Z,76.91
2022-10-03T10:11:09.433Z,76.39
2022-10-03T10:16:31.037Z,76.13
2022-10-03T10:22:08.281Z,76.14
2022-10-03T10:27:30.513Z,75.97
2022-10-03T10:33:01.084Z,76.11
2022-10-03T10:38:43.764Z,76.40
2022-10-03T10:44:31.542Z,76.58
2022-10-03T10:50:02.375Z,76.42
2022-10-03T10:56:06.363Z,76.99
2022-10-03T11:02:02.295Z,77.87
2022-10-03T11:07:40.423Z,78.95
2022-10-03T11:13:11.050Z,79.86
2022-10-03T11:18:32.372Z,79.87
2022-10-03T11:24:49.514Z,80.03
2022-10-03T11:30:38.610Z,80.71
2022-10-03T11:36:08.293Z,80.39
2022-10-03T11:41:32.616Z,80.36
2022-10-03T11:47:05.294Z,80.08
2022-10-03T11:52:49.862Z,80.09
2022-10-03T11:58:41.423Z,79.71
2022-10-03T12:04:17.994Z,78.70
2022-10-03T12:09:46.431Z,77.97
2022-10-03T12:14:52.429Z,77.45
2022-10-03T12:20:24.456Z,76.68
2022-10-03T12:25:31.179Z,75.56
2022-10-03T12:31:10.664Z,75.16
2022-10-03T12:36:20.976Z,73.84
2022-10-03T12:42:06.311Z,72.40
2022-10-03T12:47:55.747Z,71.07
2022-10-03T12:53:17.674Z,70.78
2022-10-03T12:58:57.511Z,69.95
2022-10-03T13:04:30.243Z,67.86
2022-10-03T13:10:01.288Z,64.49
2022-10-03T13:15:45.895Z,63.29
2022-10-03T13:21:40.545Z,64.22
2022-10-03T13:27:32.411Z,63.99
2022-10-03T13:32:44.980Z,63.13
2022-10-03T13:38:07.759Z,62.32
2022-10-03T13:43:17.259Z,62.63
2022-10-03T13:48:27.111Z,62.75
2022-10-03T13:54:01.548Z,64.15
2022-10-03T13:59:51.251Z,64.69
2022-10-03T14:05:46.822Z,64.21
2022-10-03T14:11:26.152Z,64.10
2022-10-03T14:16:37.743Z,63.23
2022-10-03T14:22:30.672Z,62.72
2022-10-03T14:27:55.891Z,62.81
2022-10-03T14:33:35.867Z,62.79
2022-10-03T14:39:25.975Z,62.90
2022-10-03T14:44:48.041Z,63.46
2022-10-03T14:49:59.518Z,62.10
2022-10-03T14:55:20.128Z,62.53
2022-10-03T15:00:43.737Z,62.86
2022-10-03T15:06:11.343Z,63.39
2022-10-03T15:11:17.230Z,63.73
2022-10-03T15:16:23.750Z,63.34
2022-10-03T15:21:28.650Z,63.37
2022-10-03T15:26:36.480Z,63.86
2022-10-03T15:31:45.698Z,63.99
2022-10-03T15:36:58.659Z,63.24
2022-10-03T15:42:07.963Z,62.35
2022-10-03T15:47:18.387Z,62.65
2022-10-03T15:52:44.690Z,63.22
2022-10-03T15:57:58.783Z,64.22
2022-10-03T16:03:16.283Z,64.28
2022-10-03T16:08:24.951Z,64.45
2022-10-03T16:13:45.342Z,64.79
2022-10-03T16:19:04.081Z,65.45
2022-10-03T16:24:16.903Z,65.78
2022-10-03T16:29:30.903Z,66.12
2022-10-03T16:34:37.040Z,66.88
2022-10-03T16:39:47.381Z,68.39
2022-10-03T16:44:58.194Z,69.39
2022-10-03T16:50:20.863Z,70.55
2022-10-03T16:55:45.728Z,71.25
2022-10-03T17:01:38.409Z,71.65
2022-10-03T17:06:51.111Z,71.75
2022-10-03T17:11:59.431Z,71.82
2022-10-03T17:17:22.707Z,71.71
2022-10-03T17:23:02.380Z,71.77
2022-10-03T17:28:12.533Z,71.89
2022-10-03T17:33:47.256Z,71.65
2022-10-03T17:39:03.661Z,71.53
2022-10-03T17:44:17.334Z,71.45
2022-10-03T17:49:57.472Z,71.52
2022-10-03T17:55:04.600Z,71.60
2022-10-03T18:00:19.639Z,71.57
2022-10-03T18:05:33.843Z,71.64
2022-10-03T18:10:46.450Z,71.31
2022-10-03T18:16:29.979Z,71.68
2022-10-03T18:22:02.603Z,71.51
2022-10-03T18:27:38.149Z,71.47
2022-10-03T18:32:42.791Z,71.10
2022-10-03T18:37:45.547Z,71.12
2022-10-03T18:42:54.909Z,71.17
2022-10-03T18:48:36.775Z,71.42
2022-10-03T18:53:57.845Z,71.69
2022-10-03T18:59:29.989Z,71.81
2022-10-03T19:04:58.055Z,71.68
2022-10-03T19:10:36.324Z,71.84
2022-10-03T19:16:06.136Z,71.81
2022-10-03T19:21:19.043Z,71.52
2022-10-03T19:26:31.300Z,71.36
2022-10-03T19:31:52.327Z,71.13
2022-10-03T19:36:57.675Z,71.40
2022-10-03T19:42:28.076Z,71.53
2022-10-03T19:47:40.641Z,72.13
2022-10-03T19:52:43.794Z,72.14
2022-10-03T19:58:04.094Z,72.29
2022-10-03T20:03:24.028Z,72.57
2022-10-03T20:09:00.483Z,72.78
2022-10-03T20:14:04.120Z,73.16
2022-10-03T20:19:16.509Z,73.36
2022-10-03T20:24:31.868Z,73.59
2022-10-03T20:29:43.404Z,73.71
2022-10-03T20:34:58.457Z,74.24
2022-10-03T20:40:26.149Z,74.36
2022-10-03T20:45:32.351Z,74.67
2022-10-03T20:50:48.768Z,74.91
2022-10-03T20:56:09.486Z,75.17
2022-10-03T21:01:32.252Z,75.42
2022-10-03T21:06:47.134Z,75.74
2022-10-03T21:11:54.607Z,75.68
2022-10-03T21:16:59.107Z,75.67
2022-10-03T21:22:07.613Z,75.87
2022-10-03T21:27:17.196Z,75.93
2022-10-03T21:32:50.810Z,76.14
2022-10-03T21:38:27.040Z,76.34
2022-10-03T21:44:11.670Z,76.09
2022-10-03T21:49:23.487Z,76.40
2022-10-03T21:54:47.712Z,76.71
2022-10-03T22:00:20.712Z,76.91
2022-10-03T22:05:43.874Z,76.57
2022-10-03T22:11:28.666Z,76.73
2022-10-03T22:16:53.691Z,76.90
2022-10-03T22:22:28.776Z,77.15
2022-10-03T22:27:34.714Z,77.06
2022-10-03T22:33:08.372Z,77.19
2022-10-03T22:38:12.142Z,76.94
2022-10-03T22:43:16.052Z,76.92
2022-10-03T22:48:40.300Z,76.54
2022-10-03T22:53:57.213Z,76.64
2022-10-03T22:59:03.088Z,76.44
2022-10-03T23:04:12.814Z,76.19
2022-10-03T23:09:28.643Z,76.37
2022-10-03T23:14:37.686Z,76.33
2022-10-03T23:20:02.019Z,76.07
2022-10-03T23:25:20.687Z,75.87
2022-10-03T23:30:26.452Z,75.67
2022-10-03T23:35:31.974Z,75.88
2022-10-03T23:40:45.087Z,75.74
2022-10-03T23:45:50.683Z,75.64
2022-10-03T23:51:07.117Z,75.56
2022-10-03T23:56:24.908Z,75.63
